Sprint Qualification
06.07.2019 Dzegužkalns (Coursemaster: Alvis Reinsons)
W70-3
1800m 10CP Climb 24m
Race result Index
Rank  Name                        Club                        Ctr Result    Behind     1.88\170m    2.94\89m    3.92\53m   4.83\119m   5.90\186m  6.101\177m  7.116\177m   8.111\89m  9.115\126m  10.100\73m   F.\54m       
   1. Hilkka Lankia               Tampereen Pyrinto           FIN 00:12.27  00:12.27    1:30( 1)    3:36(15)    4:12(16)    4:57(10)    6:34( 3)    8:51( 2)   10:07( 1)   10:58( 1)   11:43( 1)   12:12( 1)   12:27( 1)  
                                                                                        1:30[ 1]    2:06[38]    0:36[29]    0:45[ 1]    1:37[ 1]    2:17[ 1]    1:16[ 1]    0:51[ 6]    0:45[ 3]    0:29[ 4]    0:15[ 2] 
   2. Jill Manning                Sugar Loaf OK               GBR 00:12.46     +0:19    1:59(17)    3:02( 2)    3:26( 1)    4:16( 1)    6:11( 1)    8:49( 1)   10:16( 2)   11:09( 2)   12:00( 2)   12:32( 2)   12:46( 2)  
                                                                                        1:59[17]    1:03[ 1]    0:24[ 2]    0:50[ 2]    1:55[ 2]    2:38[ 3]    1:27[ 9]    0:53[ 9]    0:51[ 6]    0:32[12]    0:14[ 1] 
   3. Ann Marie Rees Andersson    Enebybergs IF               SWE 00:13.18     +0:51    1:34( 2)    3:01( 1)    3:27( 2)    4:25( 2)    6:26( 2)    9:10( 3)   10:51( 3)   11:43( 3)   12:30( 3)   13:01( 3)   13:18( 3)  
                                                                                        1:34[ 2]    1:27[15]    0:26[ 5]    0:58[ 6]    2:01[ 8]    2:44[ 7]    1:41[23]    0:52[ 8]    0:47[ 4]    0:31[ 8]    0:17[ 8] 
   4. Lena Barkestam              IK Hakarpspojkarna          SWE 00:13.31     +1:04    1:45( 5)    3:13( 6)    3:37( 3)    4:43( 3)    7:07(10)    9:49( 7)   11:10( 6)   12:00( 6)   12:44( 4)   13:13( 4)   13:31( 4)  
                                                                                        1:45[ 5]    1:28[16]    0:24[ 2]    1:06[19]    2:24[22]    2:42[ 4]    1:21[ 2]    0:50[ 4]    0:44[ 1]    0:29[ 4]    0:18[12] 
   5. Turid Nystrom               Stavanger Orienteringsklubb NOR 00:13.38     +1:11    1:38( 3)    3:26(12)    3:57(11)    5:01(12)    6:57( 8)    9:33( 4)   10:59( 5)   11:53( 5)   12:54( 6)   13:22( 5)   13:38( 5)  
                                                                                        1:38[ 3]    1:48[30]    0:31[10]    1:04[12]    1:56[ 4]    2:36[ 2]    1:26[ 7]    0:54[12]    1:01[16]    0:28[ 3]    0:16[ 7] 
   6. Lisbeth Karlsson            Vaggeryds SOK               SWE 00:13.45     +1:18    1:42( 4)    3:12( 5)    3:46( 7)    4:50( 7)    6:51( 4)    9:34( 5)   10:55( 4)   11:51( 4)   12:47( 5)   13:22( 5)   13:45( 6)  
                                                                                        1:42[ 4]    1:30[17]    0:34[21]    1:04[12]    2:01[ 8]    2:43[ 5]    1:21[ 2]    0:56[13]    0:56[ 9]    0:35[21]    0:23[41] 
   7. Anne Lundmark               Jarfalla OK                 SWE 00:14.10     +1:43    1:48( 7)    3:09( 4)    3:43( 5)    4:45( 4)    6:54( 6)   10:02( 8)   11:29( 7)   12:29( 7)   13:22( 7)   13:53( 7)   14:10( 7)  
                                                                                        1:48[ 7]    1:21[10]    0:34[21]    1:02[ 8]    2:09[13]    3:08[19]    1:27[ 9]    1:00[17]    0:53[ 8]    0:31[ 8]    0:17[ 8] 
   8. Kajsa Toften                Hjobygdens OK               SWE 00:14.46     +2:19    1:46( 6)    3:28(13)    3:58(12)    5:05(14)    7:23(13)   10:22(11)   11:51(10)   12:53(10)   13:53(10)   14:27( 8)   14:46( 8)  
                                                                                        1:46[ 6]    1:42[24]    0:30[ 6]    1:07[20]    2:18[20]    2:59[14]    1:29[13]    1:02[24]    1:00[15]    0:34[19]    0:19[17] 
   9. Britt Forsell Pirozzi       Skaneslattens OL            SWE 00:14.47     +2:20    1:58(16)    3:20( 9)    3:51( 9)    4:55( 8)    7:04( 9)   10:15(10)   11:49( 9)   12:49( 9)   13:52( 8)   14:28( 9)   14:47( 9)  
                                                                                        1:58[16]    1:22[11]    0:31[10]    1:04[12]    2:09[13]    3:11[21]    1:34[18]    1:00[17]    1:03[18]    0:36[24]    0:19[17] 
  10. Inger Glans                 OK Torfinn                  SWE 00:14.54     +2:27    1:54(11)    3:14( 7)    3:45( 6)    4:49( 6)    6:52( 5)   10:03( 9)   11:42( 8)   12:42( 8)   13:52( 8)   14:30(10)   14:54(10)  
                                                                                        1:54[11]    1:20[ 7]    0:31[10]    1:04[12]    2:03[11]    3:11[21]    1:39[20]    1:00[17]    1:10[30]    0:38[28]    0:24[52] 
  11. Britt Mari Karlsson         Vaxjo OK                    SWE 00:15.00     +2:33    2:02(19)    3:39(16)    4:10(15)    5:42(16)    7:46(15)   10:38(12)   12:06(11)   13:11(11)   14:10(11)   14:42(11)   15:00(11)  
                                                                                        2:02[19]    1:37[23]    0:31[10]    1:32[45]    2:04[12]    2:52[13]    1:28[11]    1:05[31]    0:59[14]    0:32[12]    0:18[12] 
  12. Liz Godfree                 Derwent Valley Orienteers   GBR 00:15.18     +2:51    4:32(60)    5:37(51)    6:02(45)    6:57(37)    8:52(25)   11:43(18)   13:04(15)   13:49(14)   14:33(12)   15:03(12)   15:18(12)  
                                                                                        4:32[60]    1:05[ 2]    0:25[ 4]    0:55[ 5]    1:55[ 2]    2:51[11]    1:21[ 2]    0:45[ 1]    0:44[ 1]    0:30[ 7]    0:15[ 3] 
  13. Rudite Sterna               Sigulda                     LAT 00:15.37     +3:10    2:00(18)    3:20( 9)    3:50( 8)    4:55( 8)    7:10(11)   10:55(14)   12:34(13)   13:36(13)   14:41(13)   15:17(13)   15:37(13)  
                                                                                        2:00[18]    1:20[ 7]    0:30[ 6]    1:05[18]    2:15[18]    3:45[42]    1:39[20]    1:02[24]    1:05[20]    0:36[24]    0:20[27] 
  14. Anne Jundas                 RSK Johvikas                EST 00:15.40     +3:13    2:06(21)    4:22(28)    5:01(28)    6:13(24)    8:44(23)   11:34(17)   13:07(16)   14:00(15)   14:50(14)   15:21(14)   15:40(14)  
                                                                                        2:06[21]    2:16[44]    0:39[37]    1:12[30]    2:31[27]    2:50[10]    1:33[16]    0:53[ 9]    0:50[ 5]    0:31[ 8]    0:19[17] 
  15. Margaret A Gjertsen         Asker Skiklubb              NOR 00:16.16     +3:49    1:55(12)    3:18( 8)    4:00(13)    5:09(15)    7:28(14)   10:41(13)   12:14(12)   13:24(12)   15:16(15)   15:54(15)   16:16(15)  
                                                                                        1:55[12]    1:23[12]    0:42[47]    1:09[24]    2:19[21]    3:13[25]    1:33[16]    1:10[41]    1:52[48]    0:38[28]    0:22[36] 
  16. Liis Lille                  Harju KEK RSK               EST 00:16.51     +4:24    2:29(38)    3:46(19)    4:30(19)    6:05(22)    8:15(17)   11:14(15)   12:59(14)   14:00(15)   16:08(18)   16:34(16)   16:51(16)  
                                                                                        2:29[38]    1:17[ 5]    0:44[51]    1:35[47]    2:10[15]    2:59[14]    1:45[25]    1:01[20]    2:08[52]    0:26[ 1]    0:17[ 8] 
  17. Juulia Salmela              Riihimaen Suunnistajat      FIN 00:17.03     +4:36    1:57(14)    3:30(14)    4:00(13)    5:04(13)    9:10(27)   12:27(28)   13:57(21)   15:03(20)   15:59(17)   16:44(18)   17:03(17)  
                                                                                        1:57[14]    1:33[21]    0:30[ 6]    1:04[12]    4:06[52]    3:17[26]    1:30[15]    1:06[32]    0:56[ 9]    0:45[46]    0:19[24] 
  18. Anne May                    South Wales Orienteering Cl GBR 00:17.05     +4:38    2:29(38)    4:11(26)    4:52(25)    6:04(21)    8:28(19)   11:57(22)   13:43(18)   14:51(19)   15:57(16)   16:41(17)   17:05(18)  
                                                                                        2:29[38]    1:42[24]    0:41[43]    1:12[30]    2:24[22]    3:29[33]    1:46[27]    1:08[36]    1:06[22]    0:44[44]    0:24[47] 
  19. Tuula Ohramaa               Rasti Jyry                  FIN 00:17.37     +5:10    2:57(49)    4:33(30)    5:07(29)    6:09(23)    8:34(20)   11:55(20)   14:03(22)   15:09(21)   16:32(19)   17:13(19)   17:37(19)  
                                                                                        2:57[49]    1:36[22]    0:34[21]    1:02[ 8]    2:25[24]    3:21[30]    2:08[44]    1:06[32]    1:23[41]    0:41[36]    0:24[47] 
  20. Marja Suomalainen           Leppavaaran Sisu            FIN 00:17.38     +5:11    1:57(14)    4:07(23)    4:39(21)    5:52(20)    8:04(16)   11:57(22)   15:08(31)   15:54(28)   16:51(23)   17:20(20)   17:38(20)  
                                                                                        1:57[14]    2:10[43]    0:32[18]    1:13[33]    2:12[16]    3:53[44]    3:11[56]    0:46[ 2]    0:57[11]    0:29[ 4]    0:18[16] 
  21. Paula Kamarainen            Hiidenkiertajat             FIN 00:17.40     +5:13    2:20(27)    5:01(42)    5:32(36)    6:33(27)   10:35(41)   13:26(34)   14:47(27)   15:43(25)   16:57(24)   17:24(22)   17:40(21)  
                                                                                        2:20[27]    2:41[48]    0:31[10]    1:01[ 7]    4:02[51]    2:51[11]    1:21[ 2]    0:56[13]    1:14[35]    0:27[ 2]    0:16[ 4] 
  22. Kari Vikerhaugen            Odal ol                     NOR 00:17.42     +5:15    2:05(20)    3:24(11)    3:55(10)    4:57(10)    6:56( 7)    9:39( 6)   14:57(29)   15:48(27)   16:49(22)   17:26(23)   17:42(22)  
                                                                                        2:05[20]    1:19[ 6]    0:31[10]    1:02[ 8]    1:59[ 6]    2:43[ 5]    5:18[59]    0:51[ 6]    1:01[16]    0:37[26]    0:16[ 4] 
  23. Signe H Heivoll             SSOK                        NOR 00:17.44     +5:17    2:23(30)    4:09(25)    4:39(21)    5:43(17)    8:57(26)   12:16(26)   14:17(23)   15:25(24)   16:38(20)   17:23(21)   17:44(23)  
                                                                                        2:23[30]    1:46[28]    0:30[ 6]    1:04[12]    3:14[44]    3:19[28]    2:01[40]    1:08[36]    1:13[34]    0:45[46]    0:21[35] 
  24. Margaret Ellis              Greater Vancouver Orienteer CAN 00:17.49     +5:22    1:52( 9)    3:43(18)    4:19(18)    6:18(25)    8:43(21)   11:44(19)   14:32(25)   15:54(28)   16:45(21)   17:26(23)   17:49(24)  
                                                                                        1:52[ 9]    1:51[31]    0:36[29]    1:59[55]    2:25[24]    3:01[16]    2:48[54]    1:22[54]    0:51[ 6]    0:41[36]    0:23[41] 
  25. Ruth Hansen                 OK Skaermen                 DEN 00:17.55     +5:28    3:41(58)    4:55(39)    5:26(33)    6:48(31)    8:49(24)   12:00(24)   13:26(17)   14:19(17)   17:04(25)   17:35(25)   17:55(25)  
                                                                                        3:41[58]    1:14[ 4]    0:31[10]    1:22[40]    2:01[ 8]    3:11[21]    1:26[ 7]    0:53[ 9]    2:45[57]    0:31[ 8]    0:20[29] 
  26. Inga Lisa Axenborg          Goteborg Majorna OK         SWE 00:18.05     +5:38    1:49( 8)    4:51(37)    6:31(48)    7:45(46)   10:00(37)   13:03(30)   14:45(26)   15:47(26)   17:11(28)   17:45(26)   18:05(26)  
                                                                                        1:49[ 8]    3:02[52]    1:40[60]    1:14[34]    2:15[18]    3:03[17]    1:42[24]    1:02[24]    1:24[42]    0:34[19]    0:20[28] 
  27. Gry Bruland Vraale          IF Sturla                   NOR 00:18.14     +5:47    2:29(38)    4:37(33)    5:24(31)    6:35(29)    9:32(32)   13:04(31)   14:49(28)   16:01(30)   17:10(27)   17:51(27)   18:14(27)  
                                                                                        2:29[38]    2:08[40]    0:47[52]    1:11[28]    2:57[41]    3:32[35]    1:45[25]    1:12[45]    1:09[28]    0:41[36]    0:23[41] 
  28. Irmela Bergt                TSV Fischerhude             GER 00:18.18     +5:51    2:44(44)    4:40(34)    5:13(30)    7:40(44)    9:40(33)   12:25(27)   13:48(19)   14:35(18)   17:14(29)   18:00(28)   18:18(28)  
                                                                                        2:44[44]    1:56[35]    0:33[19]    2:27[57]    2:00[ 7]    2:45[ 8]    1:23[ 6]    0:47[ 3]    2:39[55]    0:46[48]    0:18[12] 
  29. Licia Kalcich               Polisportiva Besanese Asd   ITA 00:18.24     +5:57    2:16(25)    3:40(17)    4:16(17)    5:47(18)    8:43(21)   12:02(25)   14:20(24)   15:22(23)   17:26(30)   18:01(29)   18:24(29)  
                                                                                        2:16[25]    1:24[14]    0:36[29]    1:31[44]    2:56[40]    3:19[28]    2:18[47]    1:02[24]    2:04[51]    0:35[21]    0:23[41] 
  30. Eila Seppala                Ylistaron KilpaVeljet       FIN 00:18.39     +6:12    2:27(36)    4:35(32)    8:39(55)    9:33(54)   11:29(45)   14:15(40)   15:43(34)   16:50(34)   17:48(32)   18:20(30)   18:39(30)  
                                                                                        2:27[36]    2:08[40]    4:04[61]    0:54[ 4]    1:56[ 4]    2:46[ 9]    1:28[11]    1:07[34]    0:58[13]    0:32[12]    0:19[17] 
  31. Markova Tatiana             Moscow                      RUS 00:18.50     +6:23    2:26(35)    4:33(30)    5:42(39)    6:53(35)    9:31(31)   12:59(29)   15:04(30)   16:20(31)   17:39(31)   18:34(31)   18:50(31)  
                                                                                        2:26[35]    2:07[39]    1:09[56]    1:11[28]    2:38[33]    3:28[32]    2:05[41]    1:16[49]    1:19[38]    0:55[55]    0:16[ 6] 
  32. Astri Hole                  Bergens TF                  NOR 00:19.07     +6:40    2:51(46)    5:00(41)    5:41(38)    6:55(36)    9:48(34)   13:24(33)   15:29(32)   16:44(33)   18:06(33)   18:47(32)   19:07(32)  
                                                                                        2:51[46]    2:09[42]    0:41[43]    1:14[34]    2:53[38]    3:36[37]    2:05[41]    1:15[48]    1:22[40]    0:41[36]    0:20[25] 
  33. Kaie Kivila                 OK Ilves                    EST 00:19.10     +6:43    2:25(32)    6:00(52)    6:36(49)    7:44(45)   10:39(42)   13:56(36)   15:51(35)   17:00(35)   18:07(34)   18:48(33)   19:10(33)  
                                                                                        2:25[32]    3:35[56]    0:36[29]    1:08[21]    2:55[39]    3:17[26]    1:55[35]    1:09[38]    1:07[25]    0:41[36]    0:22[36] 
  34. Sakae Imai                  Wanderers                   JPN 00:19.16     +6:49    1:53(10)    3:02( 2)    3:37( 3)    4:45( 4)    7:16(12)   11:21(16)   15:32(33)   16:33(32)   18:22(36)   18:57(34)   19:16(34)  
                                                                                        1:53[10]    1:09[ 3]    0:35[25]    1:08[21]    2:31[27]    4:05[49]    4:11[57]    1:01[20]    1:49[47]    0:35[21]    0:19[17] 
  35. Anne Stenseth               Byasen IL                   NOR 00:19.25     +6:58    2:42(43)    4:05(22)    4:43(24)    7:32(43)   10:09(39)   14:09(38)   15:55(37)   17:15(38)   18:25(37)   19:04(35)   19:25(35)  
                                                                                        2:42[43]    1:23[12]    0:38[36]    2:49[58]    2:37[32]    4:00[47]    1:46[27]    1:20[51]    1:10[30]    0:39[32]    0:21[30] 
  36. Anne Furuholt               OL Trollelg                 NOR 00:19.26     +6:59    2:22(29)    4:21(27)    5:00(27)    6:32(26)   10:08(38)   14:05(37)   15:53(36)   17:05(36)   18:12(35)   19:05(36)   19:26(36)  
                                                                                        2:22[29]    1:59[37]    0:39[37]    1:32[45]    3:36[47]    3:57[45]    1:48[31]    1:12[45]    1:07[25]    0:53[53]    0:21[30] 
  37. Anne Marit Faerden          Kolbotn  Skimt OL           NOR 00:19.34     +7:07    2:11(23)    4:48(36)    5:24(31)    6:33(27)    9:18(29)   14:14(39)   16:05(40)   17:08(37)   18:28(38)   19:10(37)   19:34(37)  
                                                                                        2:11[23]    2:37[47]    0:36[29]    1:09[24]    2:45[36]    4:56[56]    1:51[32]    1:03[29]    1:20[39]    0:42[42]    0:24[47] 
  38. Kristin Vigander            Fossum IF                   NOR 00:20.59     +8:32    2:29(38)    4:51(37)    5:32(36)    6:51(33)    9:51(35)   13:48(35)   15:57(38)   17:25(39)   19:24(39)   20:30(38)   20:59(38)  
                                                                                        2:29[38]    2:22[45]    0:41[43]    1:19[38]    3:00[43]    3:57[45]    2:09[46]    1:28[55]    1:59[50]    1:06[60]    0:29[57] 
  39. Karin Creutzer Blomgren     OK Tyr                      SWE 00:21.25     +8:58    2:18(26)    5:08(43)    5:44(40)    6:52(34)    9:28(30)   13:09(32)   16:01(39)   19:14(41)   20:22(40)   21:01(39)   21:25(39)  
                                                                                        2:18[26]    2:50[50]    0:36[29]    1:08[21]    2:36[31]    3:41[38]    2:52[55]    3:13[61]    1:08[27]    0:39[32]    0:24[47] 
  40. Marie Sikorova              TJ Banik Ostrava OKD        CZE 00:21.27     +9:00    2:15(24)    3:59(21)    4:34(20)    9:19(53)   11:49(47)   16:39(46)   18:15(44)   19:14(41)   20:25(41)   21:05(40)   21:27(40)  
                                                                                        2:15[24]    1:44[26]    0:35[25]    4:45[61]    2:30[26]    4:50[54]    1:36[19]    0:59[16]    1:11[32]    0:40[34]    0:22[36] 
  41. Ulla Ahonen                 Hameenlinnan Suunnistajat   FIN 00:21.36     +9:09    3:58(59)    6:24(55)    7:04(53)    8:52(51)   11:51(48)   16:06(45)   18:11(43)   19:27(44)   20:41(42)   21:13(41)   21:36(41)  
                                                                                        3:58[59]    2:26[46]    0:40[42]    1:48[52]    2:59[42]    4:15[50]    2:05[41]    1:16[49]    1:14[35]    0:32[12]    0:23[41] 
  42. Kveta Kubikova              OK Lokomotiva Pardubice     CZE 00:21.56     +9:29    3:35(56)    4:55(39)    5:26(33)    8:49(50)   13:46(50)   16:57(47)   18:37(46)   19:46(45)   20:52(43)   21:38(42)   21:56(42)  
                                                                                        3:35[56]    1:20[ 7]    0:31[10]    3:23[59]    4:57[56]    3:11[21]    1:40[22]    1:09[38]    1:06[22]    0:46[48]    0:18[15] 
  43. Tatsiana Kandratsyeva       Belaya Rus SOC              BLR 00:22.25     +9:58    3:29(54)    5:21(46)    6:00(43)    7:30(41)   10:55(43)   15:23(42)   17:44(42)   19:19(43)   20:56(44)   21:53(43)   22:25(43)  
                                                                                        3:29[54]    1:52[32]    0:39[37]    1:30[42]    3:25[46]    4:28[53]    2:21[50]    1:35[57]    1:37[45]    0:57[57]    0:32[59] 
  44. Natalia Romanova            Azimut                      RUS 00:22.33    +10:06    3:13(52)    5:09(44)    6:01(44)    7:18(40)   11:01(44)   15:55(44)   18:15(44)   19:52(46)   21:19(45)   22:05(44)   22:33(44)  
                                                                                        3:13[52]    1:56[35]    0:52[54]    1:17[37]    3:43[48]    4:54[55]    2:20[49]    1:37[58]    1:27[43]    0:46[48]    0:28[55] 
  45. Katariina Peltola           MS Parma                    FIN 00:22.46    +10:19    1:56(13)    7:05(56)    7:46(54)    9:12(52)   14:17(51)   18:01(49)   19:30(47)   20:27(47)   21:38(46)   22:19(45)   22:46(45)  
                                                                                        1:56[13]    5:09[58]    0:41[43]    1:26[41]    5:05[57]    3:44[40]    1:29[13]    0:57[15]    1:11[32]    0:41[36]    0:27[54] 
  46. Asta Ziliene                OK Labirintas               LTU 00:23.09    +10:42    2:38(42)    5:23(47)    5:56(41)    6:59(38)    9:12(28)   18:17(51)   20:03(49)   21:12(49)   22:09(47)   22:47(46)   23:09(46)  
                                                                                        2:38[42]    2:45[49]    0:33[19]    1:03[11]    2:13[17]    9:05[60]    1:46[27]    1:09[38]    0:57[11]    0:38[28]    0:22[36] 
  47. Margret Carlsson            OK Skogsfalken              SWE 00:24.04    +11:37    2:46(45)    9:08(57)    9:31(56)   11:16(56)   14:31(52)   18:02(50)   20:20(51)   21:53(51)   22:56(48)   23:40(47)   24:04(47)  
                                                                                        2:46[45]    6:22[59]    0:23[ 1]    1:45[51]    3:15[45]    3:31[34]    2:18[47]    1:33[56]    1:03[18]    0:44[44]    0:24[47] 
  48. Inge Olsen                  Helsingoer SOK              DEN 00:25.32    +13:05    2:07(22)    5:17(45)    5:56(41)    6:49(32)   15:11(54)   18:18(52)   22:34(53)   23:24(53)   24:40(49)   25:13(48)   25:32(48)  
                                                                                        2:07[22]    3:10[54]    0:39[37]    0:53[ 3]    8:22[58]    3:07[18]    4:16[58]    0:50[ 4]    1:16[37]    0:33[18]    0:19[17] 
  49. Eva Lindgren                Linkopings OK               SWE 00:26.02    +13:35    2:28(37)   10:48(59)   12:08(58)   13:20(58)   16:01(55)   19:43(53)   21:51(52)   23:12(52)   24:49(50)   25:39(49)   26:02(49)  
                                                                                        2:28[37]    8:20[60]    1:20[58]    1:12[30]    2:41[34]    3:42[39]    2:08[44]    1:21[53]    1:37[45]    0:50[51]    0:23[41] 
  50. Britt Solberg Straume       Drangedal OL                NOR 00:26.24    +13:57    2:52(47)    6:06(54)    6:59(51)    8:36(49)   12:19(49)   17:18(48)   20:01(48)   21:45(50)   24:54(51)   25:52(50)   26:24(50)  
                                                                                        2:52[47]    3:14[55]    0:53[55]    1:37[48]    3:43[48]    4:59[57]    2:43[53]    1:44[59]    3:09[58]    0:58[59]    0:32[59] 
  51. Anne Margrethe Kvam         Frol IL                     NOR 00:26.33    +14:06    2:58(50)    4:44(35)    5:27(35)    7:10(39)    9:58(36)   21:35(54)   23:21(54)   24:28(54)   25:37(52)   26:14(51)   26:33(51)  
                                                                                        2:58[50]    1:46[28]    0:43[50]    1:43[50]    2:48[37]   11:37[61]    1:46[27]    1:07[34]    1:09[28]    0:37[26]    0:19[23] 
  52. Berit Louise Eskerud        Lillehammer OK              NOR 00:27.25    +14:58    2:25(32)    5:27(48)    6:09(47)    7:30(41)   10:14(40)   14:39(41)   20:03(49)   21:05(48)   26:06(53)   27:03(52)   27:25(52)  
                                                                                        2:25[32]    3:02[52]    0:42[47]    1:21[39]    2:44[35]    4:25[52]    5:24[60]    1:02[24]    5:01[59]    0:57[57]    0:22[36] 
  53. Nancy Neuburger             Possum Trot Orienteering Cl USA 00:27.50    +15:23    3:38(57)    5:31(50)    7:03(52)    8:33(48)   19:28(57)   22:51(55)   24:46(55)   25:47(55)   26:52(54)   27:30(53)   27:50(53)  
                                                                                        3:38[57]    1:53[33]    1:32[59]    1:30[42]   10:55[61]    3:23[31]    1:55[35]    1:01[20]    1:05[20]    0:38[28]    0:20[25] 
  54. Laila Patronen Jurvanen     Hameenlinnan Tarmo          FIN 00:29.18    +16:51    3:33(55)    5:27(48)    6:06(46)    8:04(47)   17:42(56)   23:22(57)   26:01(58)   27:11(58)   28:17(55)   28:57(54)   29:18(54)  
                                                                                        3:33[55]    1:54[34]    0:39[37]    1:58[54]    9:38[60]    5:40[58]    2:39[52]    1:10[41]    1:06[22]    0:40[34]    0:21[30] 
  55. Kirsten Lovise Eggen        Fana IL                     NOR 00:29.36    +17:09    3:10(51)    6:00(52)    6:48(50)   10:22(55)   14:45(53)   22:51(55)   24:48(56)   25:51(56)   28:24(56)   29:15(55)   29:36(55)  
                                                                                        3:10[51]    2:50[50]    0:48[53]    3:34[60]    4:23[53]    8:06[59]    1:57[38]    1:03[29]    2:33[54]    0:51[52]    0:21[30] 
  56. Valentina Piskareva         Rus veteran                 RUS 00:30.15    +17:48    2:53(48)    4:23(29)    4:58(26)    6:47(30)   11:37(46)   15:39(43)   17:33(41)   18:45(40)   28:52(57)   29:47(56)   30:15(56)  
                                                                                        2:53[48]    1:30[17]    0:35[25]    1:49[53]    4:50[55]    4:02[48]    1:54[34]    1:12[45]   10:07[61]    0:55[55]    0:28[55] 
  57. Liudmila Ovsiannikova       Saint Petersburg Granit     RUS 00:30.27    +18:00    9:10(61)   10:40(58)   11:16(57)   12:31(57)   21:06(59)   24:14(59)   26:10(59)   27:11(58)   29:34(58)   30:06(57)   30:27(57)  
                                                                                        9:10[61]    1:30[17]    0:36[29]    1:15[36]    8:35[59]    3:08[19]    1:56[37]    1:01[20]    2:23[53]    0:32[12]    0:21[30] 
  58. Kateryna Radzivil           Rus veteran                 RUS 00:33.17    +20:50    3:25(53)   15:10(60)   16:28(60)   18:05(60)   21:59(60)   26:14(60)   28:37(60)   30:23(60)   31:54(59)   32:48(58)   33:17(58)  
                                                                                        3:25[53]   11:45[61]    1:18[57]    1:37[48]    3:54[50]    4:15[50]    2:23[51]    1:46[60]    1:31[44]    0:54[54]    0:29[57] 
  59. Vera T Sjolie               Kolbotn og Skimt            NOR 00:34.06    +21:39    2:25(32)   15:38(61)   16:20(59)   17:29(59)   20:03(58)   23:47(58)   25:39(57)   26:49(57)   32:59(60)   33:41(59)   34:06(59)  
                                                                                        2:25[32]   13:13[62]    0:42[47]    1:09[24]    2:34[30]    3:44[40]    1:52[33]    1:10[41]    6:10[60]    0:42[42]    0:25[53] 
  60. Ingunn Skare                Bergens TF                  NOR 00:43.06    +30:39   17:57(62)   21:54(62)   22:29(61)   24:31(61)   29:03(61)   32:52(61)   38:25(61)   39:35(61)   42:17(61)   42:49(60)   43:06(60)  
                                                                                       17:57[62]    3:57[57]    0:35[25]    2:02[56]    4:32[54]    3:49[43]    5:33[61]    1:10[41]    2:42[56]    0:32[12]    0:17[11] 
      Kari Strande                Ringerike OL                NOR DNF                 
                                                                                     
      Ruth Muller Gianini         Swiss O Tours               SUI MP                    2:21(28)    3:53(20)  
                                                                                        2:21[28]    1:32[20] 
      Liisa Sundberg              Lynx                        FIN MP                    2:23(30)    4:07(23)    4:41(23)    5:51(19)    8:23(18)   11:56(21)   13:53(20)   15:13(22)   17:05(26)  
                                                                                        2:23[30]    1:44[26]    0:34[21]    1:10[27]    2:32[29]    3:33[36]    1:57[38]    1:20[51]    1:52[48] 
      Sona Kavecka                Hana Orienteering           SVK DNS                 
                                                                                     
      Gullevi Svensson            Ronneby OK                  SWE DNS                 
                                                                                     
WMOC 2019, Latvia
Race Manager IT: Tak-Soft (Tarmo Klaar) 2006-2019 www.tak-soft.com 07.07.2019 07:22:27